sensor_id;sensor_type;location;lat;lon;timestamp;pressure;altitude;pressure_sealevel;temperature;humidity
53480;BME280;56133;51.012;-1.648;2023-01-25T00:01:24;102812.72;;;-2.61;100.00
53480;BME280;56133;51.012;-1.648;2023-01-25T00:03:49;102803.09;;;-2.61;100.00
53480;BME280;56133;51.012;-1.648;2023-01-25T00:06:14;102805.75;;;-2.57;100.00
53480;BME280;56133;51.012;-1.648;2023-01-25T00:08:40;102803.06;;;-2.67;100.00
53480;BME280;56133;51.012;-1.648;2023-01-25T00:11:05;102793.53;;;-2.41;100.00
53480;BME280;56133;51.012;-1.648;2023-01-25T00:13:31;102812.81;;;-2.46;100.00
53480;BME280;56133;51.012;-1.648;2023-01-25T00:16:03;102803.09;;;-2.61;100.00
53480;BME280;56133;51.012;-1.648;2023-01-25T00:18:29;102813.56;;;-2.70;100.00
53480;BME280;56133;51.012;-1.648;2023-01-25T00:20:55;102807.50;;;-2.55;100.00
53480;BME280;56133;51.012;-1.648;2023-01-25T00:23:20;102803.97;;;-2.58;100.00
53480;BME280;56133;51.012;-1.648;2023-01-25T00:25:45;102802.16;;;-2.69;100.00
53480;BME280;56133;51.012;-1.648;2023-01-25T00:28:11;102797.69;;;-2.81;100.00
53480;BME280;56133;51.012;-1.648;2023-01-25T00:30:36;102793.38;;;-2.74;100.00
53480;BME280;56133;51.012;-1.648;2023-01-25T00:33:32;102795.91;;;-2.93;100.00
53480;BME280;56133;51.012;-1.648;2023-01-25T00:36:00;102797.69;;;-2.87;100.00
53480;BME280;56133;51.012;-1.648;2023-01-25T00:38:34;102792.41;;;-2.85;100.00
53480;BME280;56133;51.012;-1.648;2023-01-25T00:41:02;102781.88;;;-2.88;100.00
53480;BME280;56133;51.012;-1.648;2023-01-25T00:43:27;102789.81;;;-2.84;100.00
53480;BME280;56133;51.012;-1.648;2023-01-25T00:45:59;102795.97;;;-2.80;100.00
53480;BME280;56133;51.012;-1.648;2023-01-25T00:48:24;102795.06;;;-2.81;100.00
53480;BME280;56133;51.012;-1.648;2023-01-25T00:50:50;102803.78;;;-2.91;100.00
53480;BME280;56133;51.012;-1.648;2023-01-25T00:53:15;102802.13;;;-2.78;100.00
53480;BME280;56133;51.012;-1.648;2023-01-25T00:55:41;102799.44;;;-2.84;100.00
53480;BME280;56133;51.012;-1.648;2023-01-25T00:58:06;102806.50;;;-2.77;100.00
53480;BME280;56133;51.012;-1.648;2023-01-25T01:00:31;102797.66;;;-2.88;100.00
53480;BME280;56133;51.012;-1.648;2023-01-25T01:02:57;102809.94;;;-2.89;100.00
53480;BME280;56133;51.012;-1.648;2023-01-25T01:05:22;102795.84;;;-2.99;100.00
53480;BME280;56133;51.012;-1.648;2023-01-25T01:07:48;102787.91;;;-3.07;100.00
53480;BME280;56133;51.012;-1.648;2023-01-25T01:10:14;102805.41;;;-3.12;100.00
53480;BME280;56133;51.012;-1.648;2023-01-25T01:12:39;102797.50;;;-3.13;100.00
53480;BME280;56133;51.012;-1.648;2023-01-25T01:15:05;102797.47;;;-3.15;100.00
53480;BME280;56133;51.012;-1.648;2023-01-25T01:17:31;102791.31;;;-3.25;100.00
53480;BME280;56133;51.012;-1.648;2023-01-25T01:19:56;102795.78;;;-3.05;100.00
53480;BME280;56133;51.012;-1.648;2023-01-25T01:22:22;102788.91;;;-2.87;100.00
53480;BME280;56133;51.012;-1.648;2023-01-25T01:24:47;102790.72;;;-2.80;100.00
53480;BME280;56133;51.012;-1.648;2023-01-25T01:27:13;102784.53;;;-2.85;100.00
53480;BME280;56133;51.012;-1.648;2023-01-25T01:29:39;102783.63;;;-2.87;100.00
53480;BME280;56133;51.012;-1.648;2023-01-25T01:32:04;102775.69;;;-2.95;100.00
53480;BME280;56133;51.012;-1.648;2023-01-25T01:34:30;102780.09;;;-2.96;100.00
53480;BME280;56133;51.012;-1.648;2023-01-25T01:36:55;102773.97;;;-2.93;100.00
53480;BME280;56133;51.012;-1.648;2023-01-25T01:39:21;102776.53;;;-3.06;100.00
53480;BME280;56133;51.012;-1.648;2023-01-25T01:41:46;102780.94;;;-3.00;100.00
53480;BME280;56133;51.012;-1.648;2023-01-25T01:44:18;102776.53;;;-3.04;100.00
53480;BME280;56133;51.012;-1.648;2023-01-25T01:46:56;102780.03;;;-3.02;100.00
53480;BME280;56133;51.012;-1.648;2023-01-25T01:49:29;102778.31;;;-3.00;100.00
53480;BME280;56133;51.012;-1.648;2023-01-25T01:52:05;102780.91;;;-3.09;100.00
53480;BME280;56133;51.012;-1.648;2023-01-25T01:54:36;102786.09;;;-3.17;100.00
53480;BME280;56133;51.012;-1.648;2023-01-25T01:59:38;102780.66;;;-3.39;100.00
53480;BME280;56133;51.012;-1.648;2023-01-25T02:02:06;102784.16;;;-3.38;100.00
53480;BME280;56133;51.012;-1.648;2023-01-25T02:04:32;102792.09;;;-3.37;100.00
53480;BME280;56133;51.012;-1.648;2023-01-25T02:07:02;102792.13;;;-3.29;100.00
53480;BME280;56133;51.012;-1.648;2023-01-25T02:09:31;102793.03;;;-3.27;100.00
53480;BME280;56133;51.012;-1.648;2023-01-25T02:11:58;102797.38;;;-3.32;100.00
53480;BME280;56133;51.012;-1.648;2023-01-25T02:14:26;102799.09;;;-3.36;100.00
53480;BME280;56133;51.012;-1.648;2023-01-25T02:16:52;102794.75;;;-3.30;100.00
53480;BME280;56133;51.012;-1.648;2023-01-25T02:19:42;102800.06;;;-3.23;100.00
53480;BME280;56133;51.012;-1.648;2023-01-25T02:22:13;102795.66;;;-3.27;100.00
53480;BME280;56133;51.012;-1.648;2023-01-25T02:24:46;102796.47;;;-3.34;100.00
53480;BME280;56133;51.012;-1.648;2023-01-25T02:27:14;102804.16;;;-3.56;100.00
53480;BME280;56133;51.012;-1.648;2023-01-25T02:29:41;102793.75;;;-3.46;100.00
53480;BME280;56133;51.012;-1.648;2023-01-25T02:32:06;102798.97;;;-3.49;100.00
53480;BME280;56133;51.012;-1.648;2023-01-25T02:34:32;102802.50;;;-3.47;100.00
53480;BME280;56133;51.012;-1.648;2023-01-25T02:36:58;102804.06;;;-3.67;100.00
53480;BME280;56133;51.012;-1.648;2023-01-25T02:39:25;102802.50;;;-3.46;100.00
53480;BME280;56133;51.012;-1.648;2023-01-25T02:41:52;102801.66;;;-3.42;100.00
53480;BME280;56133;51.012;-1.648;2023-01-25T02:44:26;102801.63;;;-3.46;100.00
53480;BME280;56133;51.012;-1.648;2023-01-25T02:46:52;102803.44;;;-3.41;100.00
53480;BME280;56133;51.012;-1.648;2023-01-25T02:49:18;102796.47;;;-3.32;100.00
53480;BME280;56133;51.012;-1.648;2023-01-25T02:51:48;102795.66;;;-3.27;100.00
53480;BME280;56133;51.012;-1.648;2023-01-25T02:54:15;102794.78;;;-3.29;100.00
53480;BME280;56133;51.012;-1.648;2023-01-25T02:56:41;102799.19;;;-3.22;100.00
53480;BME280;56133;51.012;-1.648;2023-01-25T02:59:08;102799.22;;;-3.18;100.00
53480;BME280;56133;51.012;-1.648;2023-01-25T03:01:35;102800.09;;;-3.20;100.00
53480;BME280;56133;51.012;-1.648;2023-01-25T03:04:00;102803.66;;;-3.11;100.00
53480;BME280;56133;51.012;-1.648;2023-01-25T03:06:26;102791.31;;;-3.18;100.00
53480;BME280;56133;51.012;-1.648;2023-01-25T03:08:51;102799.22;;;-3.20;100.00
53480;BME280;56133;51.012;-1.648;2023-01-25T03:11:16;102793.97;;;-3.18;100.00
53480;BME280;56133;51.012;-1.648;2023-01-25T03:13:42;102784.34;;;-3.16;100.00
53480;BME280;56133;51.012;-1.648;2023-01-25T03:16:10;102785.19;;;-3.22;100.00
53480;BME280;56133;51.012;-1.648;2023-01-25T03:18:36;102779.88;;;-3.24;100.00
53480;BME280;56133;51.012;-1.648;2023-01-25T03:21:10;102783.31;;;-3.34;100.00
53480;BME280;56133;51.012;-1.648;2023-01-25T03:23:36;102770.06;;;-3.51;100.00
53480;BME280;56133;51.012;-1.648;2023-01-25T03:26:13;102778.00;;;-3.43;100.00
53480;BME280;56133;51.012;-1.648;2023-01-25T03:28:40;102762.19;;;-3.51;100.00
53480;BME280;56133;51.012;-1.648;2023-01-25T03:31:07;102777.97;;;-3.46;100.00
53480;BME280;56133;51.012;-1.648;2023-01-25T03:33:33;102769.16;;;-3.52;100.00
53480;BME280;56133;51.012;-1.648;2023-01-25T03:35:59;102775.25;;;-3.56;100.00
53480;BME280;56133;51.012;-1.648;2023-01-25T03:38:25;102771.72;;;-3.61;100.00
53480;BME280;56133;51.012;-1.648;2023-01-25T03:40:51;102769.09;;;-3.59;100.00
53480;BME280;56133;51.012;-1.648;2023-01-25T03:43:17;102766.47;;;-3.59;100.00
53480;BME280;56133;51.012;-1.648;2023-01-25T03:45:42;102762.13;;;-3.59;100.00
53480;BME280;56133;51.012;-1.648;2023-01-25T03:48:08;102767.34;;;-3.62;100.00
53480;BME280;56133;51.012;-1.648;2023-01-25T03:50:33;102761.94;;;-3.77;100.00
53480;BME280;56133;51.012;-1.648;2023-01-25T03:52:59;102753.31;;;-3.62;100.00
53480;BME280;56133;51.012;-1.648;2023-01-25T03:55:34;102753.31;;;-3.62;100.00
53480;BME280;56133;51.012;-1.648;2023-01-25T03:58:00;102748.09;;;-3.61;100.00
53480;BME280;56133;51.012;-1.648;2023-01-25T04:00:26;102744.47;;;-3.72;100.00
53480;BME280;56133;51.012;-1.648;2023-01-25T04:02:51;102752.41;;;-3.64;100.00
53480;BME280;56133;51.012;-1.648;2023-01-25T04:05:17;102750.72;;;-3.58;100.00
53480;BME280;56133;51.012;-1.648;2023-01-25T04:07:42;102751.59;;;-3.56;100.00
53480;BME280;56133;51.012;-1.648;2023-01-25T04:10:08;102753.41;;;-3.50;100.00
53480;BME280;56133;51.012;-1.648;2023-01-25T04:12:34;102749.78;;;-3.66;100.00
53480;BME280;56133;51.012;-1.648;2023-01-25T04:15:00;102749.84;;;-3.57;100.00
53480;BME280;56133;51.012;-1.648;2023-01-25T04:17:25;102755.13;;;-3.54;100.00
53480;BME280;56133;51.012;-1.648;2023-01-25T04:19:50;102748.06;;;-3.62;100.00
53480;BME280;56133;51.012;-1.648;2023-01-25T04:22:16;102746.31;;;-3.62;100.00
53480;BME280;56133;51.012;-1.648;2023-01-25T04:24:42;102751.44;;;-3.77;100.00
53480;BME280;56133;51.012;-1.648;2023-01-25T04:27:08;102748.75;;;-3.85;100.00
53480;BME280;56133;51.012;-1.648;2023-01-25T04:29:34;102747.88;;;-3.83;100.00
53480;BME280;56133;51.012;-1.648;2023-01-25T04:31:59;102747.00;;;-3.83;100.00
53480;BME280;56133;51.012;-1.648;2023-01-25T04:34:25;102750.47;;;-3.84;100.00
53480;BME280;56133;51.012;-1.648;2023-01-25T04:36:50;102751.38;;;-3.82;100.00
53480;BME280;56133;51.012;-1.648;2023-01-25T04:39:16;102741.66;;;-3.92;100.00
53480;BME280;56133;51.012;-1.648;2023-01-25T04:41:41;102738.19;;;-3.91;100.00
53480;BME280;56133;51.012;-1.648;2023-01-25T04:44:07;102747.84;;;-3.86;100.00
53480;BME280;56133;51.012;-1.648;2023-01-25T04:46:32;102738.19;;;-3.90;100.00
53480;BME280;56133;51.012;-1.648;2023-01-25T04:48:57;102740.88;;;-3.84;100.00
53480;BME280;56133;51.012;-1.648;2023-01-25T04:51:23;102748.66;;;-3.94;100.00
53480;BME280;56133;51.012;-1.648;2023-01-25T04:53:48;102749.63;;;-3.86;100.00
53480;BME280;56133;51.012;-1.648;2023-01-25T04:56:14;102755.63;;;-3.97;100.00
53480;BME280;56133;51.012;-1.648;2023-01-25T04:58:39;102752.16;;;-3.94;100.00
53480;BME280;56133;51.012;-1.648;2023-01-25T05:01:04;102749.69;;;-3.78;100.00
53480;BME280;56133;51.012;-1.648;2023-01-25T05:03:31;102760.06;;;-3.91;100.00
53480;BME280;56133;51.012;-1.648;2023-01-25T05:05:57;102756.44;;;-4.01;100.00
53480;BME280;56133;51.012;-1.648;2023-01-25T05:08:22;102776.72;;;-3.90;100.00
53480;BME280;56133;51.012;-1.648;2023-01-25T05:10:47;102769.66;;;-3.94;100.00
53480;BME280;56133;51.012;-1.648;2023-01-25T05:13:13;102781.91;;;-3.93;100.00
53480;BME280;56133;51.012;-1.648;2023-01-25T05:15:38;102778.44;;;-3.91;100.00
53480;BME280;56133;51.012;-1.648;2023-01-25T05:18:04;102764.47;;;-3.88;100.00
53480;BME280;56133;51.012;-1.648;2023-01-25T05:20:29;102776.81;;;-3.78;100.00
53480;BME280;56133;51.012;-1.648;2023-01-25T05:22:55;102774.94;;;-3.91;100.00
53480;BME280;56133;51.012;-1.648;2023-01-25T05:25:20;102772.34;;;-3.87;100.00
53480;BME280;56133;51.012;-1.648;2023-01-25T05:28:05;102760.13;;;-3.86;100.00
53480;BME280;56133;51.012;-1.648;2023-01-25T05:30:31;102753.94;;;-3.91;100.00
53480;BME280;56133;51.012;-1.648;2023-01-25T05:32:57;102773.47;;;-3.63;100.00
53480;BME280;56133;51.012;-1.648;2023-01-25T05:35:22;102764.66;;;-3.68;100.00
53480;BME280;56133;51.012;-1.648;2023-01-25T05:37:48;102766.44;;;-3.62;100.00
53480;BME280;56133;51.012;-1.648;2023-01-25T05:40:13;102769.16;;;-3.52;100.00
53480;BME280;56133;51.012;-1.648;2023-01-25T05:42:39;102763.09;;;-3.44;100.00
53480;BME280;56133;51.012;-1.648;2023-01-25T05:45:06;102751.75;;;-3.37;100.00
53480;BME280;56133;51.012;-1.648;2023-01-25T05:47:32;102761.47;;;-3.24;100.00
53480;BME280;56133;51.012;-1.648;2023-01-25T05:49:57;102760.66;;;-3.18;100.00
53480;BME280;56133;51.012;-1.648;2023-01-25T05:52:23;102752.78;;;-3.16;100.00
53480;BME280;56133;51.012;-1.648;2023-01-25T05:54:48;102757.25;;;-3.05;100.00
53480;BME280;56133;51.012;-1.648;2023-01-25T05:57:14;102749.44;;;-2.94;100.00
53480;BME280;56133;51.012;-1.648;2023-01-25T05:59:39;102745.03;;;-2.93;100.00
53480;BME280;56133;51.012;-1.648;2023-01-25T06:02:04;102737.16;;;-2.90;100.00
53480;BME280;56133;51.012;-1.648;2023-01-25T06:04:30;102738.09;;;-2.76;100.00
53480;BME280;56133;51.012;-1.648;2023-01-25T06:06:56;102732.81;;;-2.80;100.00
53480;BME280;56133;51.012;-1.648;2023-01-25T06:09:21;102723.16;;;-2.86;100.00
53480;BME280;56133;51.012;-1.648;2023-01-25T06:11:48;102727.59;;;-2.71;100.00
53480;BME280;56133;51.012;-1.648;2023-01-25T06:14:14;102718.81;;;-2.73;100.00
53480;BME280;56133;51.012;-1.648;2023-01-25T06:16:40;102718.84;;;-2.62;100.00
53480;BME280;56133;51.012;-1.648;2023-01-25T06:19:06;102712.72;;;-2.63;100.00
53480;BME280;56133;51.012;-1.648;2023-01-25T06:21:33;102725.09;;;-2.43;100.00
53480;BME280;56133;51.012;-1.648;2023-01-25T06:24:01;102707.47;;;-2.53;100.00
53480;BME280;56133;51.012;-1.648;2023-01-25T06:26:27;102718.94;;;-2.40;100.00
53480;BME280;56133;51.012;-1.648;2023-01-25T06:28:52;102711.03;;;-2.50;100.00
53480;BME280;56133;51.012;-1.648;2023-01-25T06:31:18;102712.81;;;-2.41;100.00
53480;BME280;56133;51.012;-1.648;2023-01-25T06:33:47;102713.69;;;-2.33;100.00
53480;BME280;56133;51.012;-1.648;2023-01-25T06:36:15;102718.06;;;-2.35;100.00
53480;BME280;56133;51.012;-1.648;2023-01-25T06:38:42;102717.19;;;-2.34;100.00
53480;BME280;56133;51.012;-1.648;2023-01-25T06:41:10;102711.94;;;-2.32;100.00
53480;BME280;56133;51.012;-1.648;2023-01-25T06:43:36;102712.81;;;-2.35;100.00
53480;BME280;56133;51.012;-1.648;2023-01-25T06:46:03;102711.94;;;-2.31;100.00
53480;BME280;56133;51.012;-1.648;2023-01-25T06:48:30;102724.22;;;-2.33;100.00
53480;BME280;56133;51.012;-1.648;2023-01-25T06:50:57;102716.34;;;-2.31;100.00
53480;BME280;56133;51.012;-1.648;2023-01-25T06:53:29;102708.44;;;-2.31;100.00
53480;BME280;56133;51.012;-1.648;2023-01-25T06:56:00;102704.03;;;-2.21;100.00
53480;BME280;56133;51.012;-1.648;2023-01-25T06:58:26;102708.47;;;-2.09;100.00
53480;BME280;56133;51.012;-1.648;2023-01-25T07:00:52;102716.38;;;-2.08;100.00
53480;BME280;56133;51.012;-1.648;2023-01-25T07:03:18;102723.41;;;-2.05;100.00
53480;BME280;56133;51.012;-1.648;2023-01-25T07:05:43;102705.81;;;-2.13;100.00
53480;BME280;56133;51.012;-1.648;2023-01-25T07:08:09;102706.69;;;-2.24;100.00
53480;BME280;56133;51.012;-1.648;2023-01-25T07:10:34;102724.22;;;-2.25;100.00
53480;BME280;56133;51.012;-1.648;2023-01-25T07:13:00;102719.88;;;-2.17;100.00
53480;BME280;56133;51.012;-1.648;2023-01-25T07:15:25;102712.88;;;-2.07;100.00
53480;BME280;56133;51.012;-1.648;2023-01-25T07:17:51;102718.13;;;-2.11;100.00
53480;BME280;56133;51.012;-1.648;2023-01-25T07:20:16;102709.38;;;-2.01;100.00
53480;BME280;56133;51.012;-1.648;2023-01-25T07:22:42;102710.25;;;-1.91;100.00
53480;BME280;56133;51.012;-1.648;2023-01-25T07:25:07;102715.47;;;-2.16;100.00
53480;BME280;56133;51.012;-1.648;2023-01-25T07:27:33;102701.44;;;-2.03;100.00
53480;BME280;56133;51.012;-1.648;2023-01-25T07:29:59;102715.53;;;-1.99;100.00
53480;BME280;56133;51.012;-1.648;2023-01-25T07:32:25;102709.38;;;-1.93;100.00
53480;BME280;56133;51.012;-1.648;2023-01-25T07:34:51;102704.97;;;-1.94;100.00
53480;BME280;56133;51.012;-1.648;2023-01-25T07:37:16;102702.34;;;-1.98;100.00
53480;BME280;56133;51.012;-1.648;2023-01-25T07:39:42;102706.72;;;-2.09;100.00
53480;BME280;56133;51.012;-1.648;2023-01-25T07:42:12;102704.97;;;-1.96;100.00
53480;BME280;56133;51.012;-1.648;2023-01-25T07:44:38;102699.72;;;-1.94;100.00
53480;BME280;56133;51.012;-1.648;2023-01-25T07:47:04;102697.06;;;-1.87;100.00
53480;BME280;56133;51.012;-1.648;2023-01-25T07:49:29;102695.31;;;-1.86;100.00
53480;BME280;56133;51.012;-1.648;2023-01-25T07:51:54;102690.94;;;-1.79;100.00
53480;BME280;56133;51.012;-1.648;2023-01-25T07:54:20;102693.56;;;-1.81;100.00
53480;BME280;56133;51.012;-1.648;2023-01-25T07:56:45;102683.91;;;-1.82;100.00
53480;BME280;56133;51.012;-1.648;2023-01-25T07:59:11;102685.66;;;-1.84;100.00
53480;BME280;56133;51.012;-1.648;2023-01-25T08:01:38;102685.66;;;-1.81;100.00
53480;BME280;56133;51.012;-1.648;2023-01-25T08:04:04;102663.72;;;-1.89;100.00
53480;BME280;56133;51.012;-1.648;2023-01-25T08:06:31;102673.34;;;-1.79;100.00
53480;BME280;56133;51.012;-1.648;2023-01-25T08:09:01;102665.47;;;-1.76;100.00
53480;BME280;56133;51.012;-1.648;2023-01-25T08:11:29;102662.81;;;-1.73;100.00
53480;BME280;56133;51.012;-1.648;2023-01-25T08:13:55;102657.56;;;-1.76;100.00
53480;BME280;56133;51.012;-1.648;2023-01-25T08:16:23;102661.94;;;-1.75;100.00
53480;BME280;56133;51.012;-1.648;2023-01-25T08:18:51;102656.66;;;-1.70;100.00
53480;BME280;56133;51.012;-1.648;2023-01-25T08:21:17;102669.84;;;-1.67;100.00
53480;BME280;56133;51.012;-1.648;2023-01-25T08:23:42;102662.81;;;-1.63;100.00
53480;BME280;56133;51.012;-1.648;2023-01-25T08:26:10;102660.16;;;-1.62;100.00
53480;BME280;56133;51.012;-1.648;2023-01-25T08:28:36;102661.06;;;-1.63;100.00
53480;BME280;56133;51.012;-1.648;2023-01-25T08:31:17;102651.38;;;-1.55;100.00
53480;BME280;56133;51.012;-1.648;2023-01-25T08:33:44;102648.72;;;-1.55;100.00
53480;BME280;56133;51.012;-1.648;2023-01-25T08:36:12;102645.19;;;-1.43;100.00
53480;BME280;56133;51.012;-1.648;2023-01-25T08:38:38;102639.03;;;-1.42;100.00
53480;BME280;56133;51.012;-1.648;2023-01-25T08:41:15;102643.41;;;-1.33;100.00
53480;BME280;56133;51.012;-1.648;2023-01-25T08:43:42;102638.13;;;-1.31;100.00
53480;BME280;56133;51.012;-1.648;2023-01-25T08:46:09;102638.13;;;-1.31;100.00
53480;BME280;56133;51.012;-1.648;2023-01-25T08:48:34;102640.78;;;-1.30;100.00
53480;BME280;56133;51.012;-1.648;2023-01-25T08:51:00;102644.22;;;-1.14;100.00
53480;BME280;56133;51.012;-1.648;2023-01-25T08:53:27;102638.97;;;-1.12;100.00
